FMST

Details ICAO FMST (TLE)
Name TOLIARA
Region Comoros, Mayotte, Réunion and Madagascar
Timezone Indian/Antananarivo (UTC+3.0)
Plans Departing 28
Arriving 42
Stats Elevation 29 ft / 9 m (AMSL)
Location -23.387333° 43.728634°
Runways 2
Magnetic Variation 20.463° W
Sunrise 2017-12-14 02:14:20 UTC / 2017-12-14 05:14:20 Local
Sunset 2017-12-14 15:47:54 UTC / 2017-12-14 18:47:54 Local
Advertisement - Login to hide

Runways

ID Width Length Bearing (true) Bearing (mag) Surface Threshold Offset Overrun Length
04 98 ft / 30 m 6,583 ft / 2,007 m 23.34° 43.80° Asphalt 0 ft / 0 m 100 ft / 30 m
11 42 ft / 13 m 2,624 ft / 800 m 89.07° 109.53° Asphalt 0 ft / 0 m 0 ft / 0 m
22 98 ft / 30 m 6,583 ft / 2,007 m 203.34° 223.80° Asphalt 0 ft / 0 m 100 ft / 30 m
29 42 ft / 13 m 2,624 ft / 800 m 269.07° 289.53° Asphalt 0 ft / 0 m 0 ft / 0 m

Map

Weather


0- 5 10 15 20 25 30 35+ Temperature / ° C

Clouds and Precipitation
Forecast for 2017-12-14 06:00 UTC. Updated 2 hours ago

Ground ~20,000 ft ~40,000 ft Winds

METAR

Not found

TAF

TAF FMST 132300Z 1400/1424 14006KT 9999 SCT020 SCT040 PROB30 TEMPO 1400/1406 4500 SHRA BECMG 1405/1408 26010KT PROB40 TEMPO 1414/1424 4500 TSRA BKN015CB SCT033

Frequencies

Tower 118.60 MHz AFIS
Warning: Do not use this data for real-world aviation or navigation. No guarantee of current accuracy is given.